Sao Jose do Egito, Brazil
Current Conditions -  °F | °C
As of 11:00 AM on Friday 24 Oct 2014 (Local Time) from SBKG Reporting Station
Broken Clouds Broken Clouds  
Wind Chill: 82°   Ceiling: 3200
Heat Index: 83°   Visibility: 6mi
Dew Point: 63°   Wind: 13mph
Humidity: 51%   Direction: 110°ESE
Pressure: 30"   Gusts: NA
Location:  7.48°S, 37.27°W
Report Text: SBKG 241400Z 11011KT 9999 BKN032 28/17 Q1016
Loading
Personal Weather Stations






























Interactive Weather Map
Tropical Storm Tracking
New forecast layout! Learn more

10-Day Weather Forecast

Advertisements
Track Severe Weather on mobile